KFDR/FDR METAR and TAF weather

Enter ICAO airport designator
Station Type Date Time Source
KFDR METAR 2023/02/04 02:53 UTC NOAA

KFDR 040253Z AUTO 18008KT 10SM CLR 03/M02 A3039 RMK AO2 SLP296 T00281017 56008


Station Type Date Time Source
KFDR Decoded METAR 2023/02/04 02:53 UTC NOAA

FREDERICK MUNICIPAL AIRPORT, OK, United States (KFDR) 34-21N 98-59W 377M
Feb 03, 2023 - 09:53 PM EST / 2023.02.04 0253 UTC
Wind: from the S (180 degrees) at 9 MPH (8 KT):0
Visibility: 10 mile(s):0
Sky conditions: clear
Temperature: 37.0 F (2.8 C)
Dew Point: 28.9 F (-1.7 C)
Relative Humidity: 72%
Pressure (altimeter): 30.39 in. Hg (1029 hPa)
Pressure tendency: 0.02 inches (0.8 hPa) lower than three hours ago
ob: KFDR 040253Z AUTO 18008KT 10SM CLR 03/M02 A3039 RMK AO2 SLP296 T00281017 56008
cycle: 3

Station Type Date Time Source
KFDR TAF UTC NOAA

Error!

Example: see airport list